Tiempo atmosférico en la estación meteorológica de San Andrés y Sauces, Santa Cruz de Tenerife (362 m.)



Fecha
DESCASC
Temp. máxima en grados centígrados (hora)
DESCASC
Temp. mínima en grados centígrados (hora)
DESCASC
Temp. media en grados centígrados
DESCASC
Racha de viento máxima en m/sg (hora)
DESCASC
Velocidad máxima media en intervalos de 10 minutos(hora)
DESCASC
Precipitaciones diarias en mm
DESCASC
Precipitaciones de 00:00 a 06:00 en mm
DESCASC
Precipitaciones de 06:00 a 12:00 en mm
DESCASC
Precipitaciones de 12:00 a 18:00 en mm
DESCASC
Precipitaciones de 18:00 a 24:00 en mm
DESCASC
23-05-2020 23.4 (14:50) 15.4 (03:30) 19.4 7.5 (12:20) 4.44 (13:50) 0 0 0 0 0
22-05-2020 22 (14:40) 14.8 (01:30) 18.4 8.61 (12:10) 5.56 (12:20) 0 0 0 0 0
21-05-2020 22.1 (13:10) 14.8 (00:00) 18.5 7.22 (14:00) 4.44 (10:40) 0 0 0 0 0
20-05-2020 23.4 (12:30) 14.5 (00:00) 18.9 7.22 (16:10) 4.44 (16:10) 0 0 0 0 0
19-05-2020 21.1 (12:00) 16.1 (03:10) 18.6 7.78 (11:00) 5.28 (15:10) 0 0 0 0 0
18-05-2020 20.6 (15:10) 15.3 (00:00) 18 8.33 (14:10) 5.28 (18:00) 0.8 0.6 0.2 0 0
17-05-2020 20.2 (16:30) 14.3 (00:00) 17.3 8.06 (23:00) 5.28 (23:00) 0 0 0 0 0
16-05-2020 18.5 (09:50) 14.5 (00:00) 16.5 8.61 (11:10) 5.83 (10:20) 0 0 0 0 0
15-05-2020 19 (14:30) 14.5 (04:40) 16.8 11.67 (11:00) 7.78 (11:20) 0 0 0 0 0
14-05-2020 19.2 (13:20) 15 (00:00) 17.1 16.39 (16:30) 10 (16:00) 0 0 0 0 0
13-05-2020 19.3 (09:50) 15.2 (00:00) 17.2 15 (11:40) 9.17 (14:00) 1.4 1.2 0.2 0 0
12-05-2020 20.6 (11:20) 15.3 (05:40) 18 13.89 (13:10) 8.33 (14:40) 0.2 0 0 0.2 0
11-05-2020 23.2 (15:50) 15.8 (00:00) 19.5 15.28 (14:50) 8.33 (17:00) 0.2 0 0 0.2 0
10-05-2020 22.7 (14:20) 15.5 (00:00) 19.1 15 (11:20) 9.17 (11:20) 0 0 0 0 0
09-05-2020 21.3 (15:00) 15.4 (02:40) 18.3 10.83 (15:10) 7.22 (14:30) 1.4 0 1.4 0 0
08-05-2020 22.6 (13:50) 14.2 (00:00) 18.4 8.33 (15:20) 5 (15:20) 0 0 0 0 0
07-05-2020 20.7 (15:10) 14.4 (00:00) 17.6 10.28 (12:50) 6.39 (11:30) 0 0 0 0 0
06-05-2020 19.7 (13:30) 15.1 (00:00) 17.4 6.11 (13:50) 4.17 (21:20) 8.4 0 0 7.8 0.6
05-05-2020 23 (13:40) 14.2 (00:00) 18.6 8.06 (10:40) 5.28 (09:30) 0 0 0 0 0
04-05-2020 21.4 (09:40) 15.7 (00:00) 18.5 7.78 (15:30) 5 (10:10) 0 0 0 0 0
03-05-2020 22.6 (17:00) 14.7 (07:00) 18.7 6.39 (23:59) 4.17 (23:59) 0 0 0 0 0
02-05-2020 21.2 (14:40) 15.7 (04:00) 18.5 8.06 (12:20) 4.72 (14:40) 0 0 0 0 0
01-05-2020 20.6 (14:50) 14.2 (00:00) 17.4 8.06 (11:20) 4.44 (14:30) 0 0 0 0 0
30-04-2020 22 (13:40) 13.5 (05:40) 17.8 6.67 (11:50) 3.89 (12:10) 0 0 0 0 0
29-04-2020 21.1 (11:00) 14 (00:00) 17.6 7.78 (15:00) 4.72 (15:00) 0 0 0 0 0
28-04-2020 21.5 (14:10) 14.5 (04:20) 18 7.5 (10:10) 5 (10:10) 0.2 0.2 0 0 0
27-04-2020 21.1 (16:40) 14.2 (00:00) 17.7 11.94 (18:50) 7.78 (18:40) 0 0 0 0 0
26-04-2020 22 (14:40) 13 (05:40) 17.5 8.61 (16:30) 5.28 (11:20) 0 0 0 0 0

Gráficas

Temp. máximas Temp. mínimas Temp. medias Precipitaciones Rachas de viento máximas Velocidades máximas media en intervalos de 10 minutos

Datos horarios

Fecha y hora oficial Temperatura (ºC) Velocidad del viento (km/h) Dirección del viento Racha (km/h) Dirección de racha Precipitación (mm) Presión (hPa) Tendencia (hPa) Humedad (%)
2020-05-25 23:00:00 18.6 8 Sudoeste 14 Sudoeste 0 -- -- 48
2020-05-25 22:00:00 17.4 3 Sudoeste 9 Sudeste 0 -- -- 68
2020-05-25 21:00:00 18.2 0 Calma 10 Sur 0 -- -- 84
2020-05-25 20:00:00 19.5 6 Sudeste 14 Sudeste 0 -- -- 83
2020-05-25 19:00:00 21 9 Sudeste 18 Este 0 -- -- 78
2020-05-25 18:00:00 22.2 8 Sudeste 18 Este 0 -- -- 73
2020-05-25 17:00:00 22.6 12 Este 22 Este 0 -- -- 73
2020-05-25 16:00:00 22.9 12 Este 23 Este 0 -- -- 70
2020-05-25 15:00:00 23.3 13 Este 26 Sudeste 0 -- -- 69
2020-05-25 14:00:00 22.8 10 Sudeste 25 Este 0 -- -- 71
2020-05-25 13:00:00 23.3 9 Este 19 Este 0 -- -- 69
2020-05-25 12:00:00 23.2 9 Sudeste 19 Sudeste 0 -- -- 70
2020-05-25 11:00:00 23.4 12 Sudeste 20 Sudeste 0 -- -- 69
2020-05-25 10:00:00 24.8 11 Sur 19 Sudeste 0 -- -- 56
2020-05-25 09:00:00 24.9 9 Sudoeste 19 Sudoeste 0 -- -- 30
2020-05-25 08:00:00 21.7 9 Sur 21 Sudoeste 0 -- -- 42
2020-05-25 07:00:00 17.8 9 Sur 21 Sur 0 -- -- 52
2020-05-25 06:00:00 16.8 15 Sur 20 Sur 0 -- -- 93
2020-05-25 05:00:00 18.5 13 Sur 20 Sudoeste 0 -- -- 74
2020-05-25 04:00:00 18.9 11 Sudoeste 17 Sudeste 0 -- -- 65
2020-05-25 03:00:00 16.6 10 Sur 22 Sudoeste 0 -- -- 96
2020-05-25 02:00:00 17 9 Sur 15 Oeste 0 -- -- 93
2020-05-25 01:00:00 17.3 10 Sur 14 Sudoeste 0 -- -- 74
2020-05-25 00:00:00 16.8 3 Sur 11 Sudeste 0 -- -- 93
2020-05-24 23:00:00 17.3 3 Sudeste 12 Sur 0 -- -- 93
2020-05-24 22:00:00 17.8 9 Sudeste 13 Sur 0 -- -- 93
2020-05-24 21:00:00 18.6 5 Este 15 Sudeste 0 -- -- 89
2020-05-24 20:00:00 19.8 10 Sudeste 17 Sudeste 0 -- -- 86
2020-05-24 19:00:00 21.5 10 Sudeste 21 Este 0 -- -- 79
2020-05-24 18:00:00 22.3 9 Sudeste 19 Sudeste 0 -- -- 77
2020-05-24 17:00:00 24.1 11 Sur 20 Sur 0 -- -- 69
2020-05-24 16:00:00 25 12 Sudeste 23 Este 0 -- -- 58
2020-05-24 15:00:00 25 10 Sudeste 20 Este 0 -- -- 58
2020-05-24 14:00:00 26.5 11 Sudeste 23 Sudeste 0 -- -- 44
2020-05-24 13:00:00 27.1 14 Sudeste 22 Sudeste 0 -- -- 35
2020-05-24 12:00:00 25.6 13 Sudeste 24 Sur 0 -- -- 36
2020-05-24 11:00:00 25.4 12 Sudeste 22 Sur 0 -- -- 36
2020-05-24 10:00:00 25 12 Sudeste 21 Sudeste 0 -- -- 41
2020-05-24 09:00:00 24.2 9 Sudeste 20 Sur 0 -- -- 34
2020-05-24 08:00:00 23 9 Sur 21 Sudoeste 0 -- -- 31
2020-05-24 07:00:00 21.3 10 Sur 21 Sudoeste 0 -- -- 44
2020-05-24 06:00:00 21.1 14 Sudoeste 23 Sudoeste 0 -- -- 46
2020-05-24 05:00:00 21.7 12 Sur 22 Sudoeste 0 -- -- 48
2020-05-24 04:00:00 21.4 12 Sur 24 Sudoeste 0 -- -- 48
2020-05-24 03:00:00 20.1 11 Sur 19 Sudeste 0 -- -- 51
2020-05-24 02:00:00 17.1 13 Sur 19 Sur 0 -- -- 92
2020-05-24 01:00:00 16.9 10 Sur 18 Sudoeste 0 -- -- 95
2020-05-24 00:00:00 16.9 5 Sudeste 15 Sudoeste 0 -- -- 93
2020-05-23 23:00:00 17.1 6 Sur 12 Sur 0 -- -- 92
2020-05-23 22:00:00 17.5 8 Sur 13 Sudeste 0 -- -- 90
2020-05-23 21:00:00 18 8 Sur 12 Sur 0 -- -- 89
2020-05-23 20:00:00 19.5 9 Sudeste 13 Sudeste 0 -- -- 81
2020-05-23 19:00:00 22.4 5 Sudeste 15 Sudeste 0 -- -- 72
2020-05-23 18:00:00 21.7 9 Este 25 Este 0 -- -- 74
2020-05-23 17:00:00 21.9 11 Este 26 Este 0 -- -- 74
2020-05-23 16:00:00 22.2 10 Este 23 Nordeste 0 -- -- 70
2020-05-23 15:00:00 23.4 13 Este 24 Este 0 -- -- 67
2020-05-23 14:00:00 23.2 14 Este 25 Este 0 -- -- 66
2020-05-23 13:00:00 22.6 14 Este 27 Nordeste 0 -- -- 69
2020-05-23 12:00:00 21.3 11 Este 26 Este 0 -- -- 72
2020-05-23 11:00:00 21.1 12 Este 22 Este 0 -- -- 72
2020-05-23 10:00:00 20.1 10 Este 19 Este 0 -- -- 76
2020-05-23 09:00:00 18.3 6 Sudeste 13 Este 0 -- -- 83
2020-05-23 08:00:00 16.2 6 Sur 17 Sudoeste 0 -- -- 90
2020-05-23 07:00:00 15.8 12 Sudoeste 21 Sudoeste 0 -- -- 91
2020-05-23 06:00:00 15.8 9 Sudoeste 17 Sudoeste 0 -- -- 88
2020-05-23 05:00:00 15.7 10 Sudoeste 18 Sudoeste 0 -- -- 91
2020-05-23 04:00:00 15.6 10 Sudoeste 15 Sudoeste 0 -- -- 91
2020-05-23 03:00:00 15.5 10 Sudoeste 14 Sudoeste 0 -- -- 91
2020-05-23 02:00:00 16.1 8 Sudoeste 13 Sudoeste 0 -- -- 90
2020-05-23 01:00:00 15.8 7 Sudoeste 13 Sudoeste 0 -- -- 91
2020-05-23 00:00:00 15.9 10 Sudoeste 14 Sudoeste 0 -- -- 90
2020-05-22 23:00:00 16.2 8 Sudoeste 13 Sudoeste 0 -- -- 89
2020-05-22 22:00:00 16.3 8 Sudoeste 11 Sudoeste 0 -- -- 88
2020-05-22 21:00:00 17 5 Sudoeste 13 Este 0 -- -- 85
2020-05-22 20:00:00 18.3 8 Este 15 Este 0 -- -- 79
2020-05-22 19:00:00 19.3 10 Este 23 Este 0 -- -- 72
2020-05-22 18:00:00 21.2 14 Este 23 Nordeste 0 -- -- 67
2020-05-22 17:00:00 21.2 15 Este 23 Este 0 -- -- 66
2020-05-22 16:00:00 21.9 13 Este 28 Este 0 -- -- 64
2020-05-22 15:00:00 21.4 13 Este 30 Este 0 -- -- 65
2020-05-22 14:00:00 21.3 15 Este 29 Este 0 -- -- 64
2020-05-22 13:00:00 20.8 16 Este 31 Este 0 -- -- 66
2020-05-22 12:00:00 21.2 15 Este 29 Este 0 -- -- 63
2020-05-22 11:00:00 19.9 15 Este 23 Este 0 -- -- 67
2020-05-22 10:00:00 16.6 8 Sur 15 Sudeste 0 -- -- 76
2020-05-22 09:00:00 16.2 9 Este 21 Nordeste 0 -- -- 78
2020-05-22 08:00:00 15.5 9 Sudoeste 13 Sudoeste 0 -- -- 82
2020-05-22 07:00:00 15.4 8 Sudoeste 14 Sudoeste 0 -- -- 82
2020-05-22 06:00:00 15.4 10 Sudoeste 22 Sudoeste 0 -- -- 82
2020-05-22 05:00:00 15.4 11 Sudoeste 20 Sudoeste 0 -- -- 80
2020-05-22 04:00:00 15.5 9 Sudoeste 19 Sudoeste 0 -- -- 81
2020-05-22 03:00:00 15.3 11 Sudoeste 16 Sudoeste 0 -- -- 82
2020-05-22 02:00:00 14.8 13 Sudoeste 18 Sudoeste 0 -- -- 84
2020-05-22 01:00:00 15 13 Sudoeste 19 Sudoeste 0 -- -- 82
2020-05-22 00:00:00 15.6 12 Sudoeste 15 Sudoeste 0 -- -- 82
2020-05-21 23:00:00 16 7 Sudoeste 15 Oeste 0 -- -- 79
2020-05-21 22:00:00 16.3 9 Este 19 Este 0 -- -- 78
2020-05-21 21:00:00 16.6 8 Este 19 Nordeste 0 -- -- 76
2020-05-21 20:00:00 17.6 12 Este 18 Este 0 -- -- 72
2020-05-21 19:00:00 18.3 6 Este 22 Este 0 -- -- 70
2020-05-21 18:00:00 18.8 13 Este 22 Nordeste 0 -- -- 68
2020-05-21 17:00:00 19.6 13 Este 25 Este 0 -- -- 67
2020-05-21 16:00:00 19.8 14 Nordeste 24 Este 0 -- -- 66
2020-05-21 15:00:00 20.8 15 Nordeste 24 Nordeste 0 -- -- 62
2020-05-21 14:00:00 20.7 16 Nordeste 26 Este 0 -- -- 64
2020-05-21 13:00:00 21.7 13 Este 23 Este 0 -- -- 60
2020-05-21 12:00:00 21.3 10 Este 24 Este 0 -- -- 62
2020-05-21 11:00:00 20.7 13 Este 24 Este 0 -- -- 63
2020-05-21 10:00:00 17.4 8 Este 19 Este 0 -- -- 71
2020-05-21 09:00:00 16.4 8 Este 16 Este 0 -- -- 74
2020-05-21 08:00:00 15.4 10 Sudoeste 14 Sudoeste 0 -- -- 80
2020-05-21 07:00:00 15.5 9 Sudoeste 14 Sudoeste 0 -- -- 80
2020-05-21 06:00:00 15.4 9 Sudoeste 16 Sudoeste 0 -- -- 80
2020-05-21 05:00:00 15.7 12 Sudoeste 15 Sudoeste 0 -- -- 79
2020-05-21 04:00:00 15.7 12 Sudoeste 16 Sudoeste 0 -- -- 79
2020-05-21 03:00:00 15.4 12 Sudoeste 14 Sudoeste 0 -- -- 83
2020-05-21 02:00:00 15 10 Sudoeste 13 Sudoeste 0 -- -- 85
2020-05-21 01:00:00 15.4 8 Sudoeste 17 Sudoeste 0 -- -- 80
2020-05-21 00:00:00 15.4 12 Sudoeste 18 Sudoeste 0 -- -- 78
2020-05-20 23:00:00 15.7 10 Sudoeste 14 Sudoeste 0 -- -- 78
2020-05-20 22:00:00 16.1 8 Sudoeste 14 Sudoeste 0 -- -- 73
2020-05-20 21:00:00 17.1 9 Sudoeste 13 Sudoeste 0 -- -- 69
2020-05-20 20:00:00 18.8 8 Este 18 Este 0 -- -- 74
2020-05-20 19:00:00 20.3 10 Este 20 Este 0 -- -- 68
2020-05-20 18:00:00 21 10 Este 20 Este 0 -- -- 69
2020-05-20 17:00:00 21.2 13 Este 26 Este 0 -- -- 70
2020-05-20 16:00:00 22.4 15 Este 24 Este 0 -- -- 65
2020-05-20 15:00:00 22.1 13 Este 25 Este 0 -- -- 66
2020-05-20 14:00:00 22.8 14 Nordeste 23 Este 0 -- -- 64
2020-05-20 13:00:00 22.5 13 Este 24 Nordeste 0 -- -- 64
2020-05-20 12:00:00 22.6 14 Este 23 Nordeste 0 -- -- 66
2020-05-20 11:00:00 21.8 12 Este 20 Este 0 -- -- 68
2020-05-20 10:00:00 20.1 10 Este 18 Este 0 -- -- 73
2020-05-20 09:00:00 17.4 5 Este 14 Sudoeste 0 -- -- 82
2020-05-20 08:00:00 15.4 4 Sudoeste 15 Sudoeste 0 -- -- 85
2020-05-20 07:00:00 14.5 11 Sudoeste 15 Sudoeste 0 -- -- 85
2020-05-20 06:00:00 14.5 9 Sudoeste 12 Sudoeste 0 -- -- 86
2020-05-20 05:00:00 14.8 9 Oeste 12 Sudoeste 0 -- -- 84
2020-05-20 04:00:00 15 8 Oeste 15 Oeste 0 -- -- 77
2020-05-20 03:00:00 15.1 8 Oeste 17 Oeste 0 -- -- 82
2020-05-20 02:00:00 15.8 12 Sudoeste 18 Sudoeste 0 -- -- 78
2020-05-20 01:00:00 16.1 8 Oeste 15 Oeste 0 -- -- 83
2020-05-20 00:00:00 16.5 8 Oeste 19 Noroeste 0 -- -- 86
2020-05-19 23:00:00 16.8 7 Norte 16 Norte 0 -- -- 86
2020-05-19 22:00:00 16.6 4 Noroeste 15 Noroeste 0 -- -- 84
2020-05-19 21:00:00 16.9 9 Norte 15 Norte 0 -- -- 86
2020-05-19 20:00:00 17.5 8 Norte 18 Norte 0 -- -- 81
2020-05-19 19:00:00 18.1 9 Norte 20 Nordeste 0 -- -- 77
2020-05-19 18:00:00 18.8 13 Nordeste 24 Nordeste 0 -- -- 78
2020-05-19 17:00:00 18.9 13 Nordeste 24 Norte 0 -- -- 77
2020-05-19 16:00:00 20.3 14 Nordeste 25 Nordeste 0 -- -- 73
2020-05-19 15:00:00 19.2 18 Nordeste 26 Nordeste 0 -- -- 76
2020-05-19 14:00:00 20.7 17 Nordeste 28 Nordeste 0 -- -- 71
2020-05-19 13:00:00 20.4 16 Nordeste 24 Nordeste 0 -- -- 71
2020-05-19 12:00:00 21.1 16 Nordeste 26 Nordeste 0 -- -- 68
2020-05-19 11:00:00 20.7 17 Nordeste 28 Nordeste 0 -- -- 73
2020-05-19 10:00:00 18.1 17 Nordeste 25 Nordeste 0 -- -- 81
2020-05-19 09:00:00 17.7 13 Nordeste 23 Este 0 -- -- 84
2020-05-19 08:00:00 16.5 7 Noroeste 16 Norte 0 -- -- 88
2020-05-19 07:00:00 16.2 7 Oeste 14 Sudoeste 0 -- -- 83
2020-05-19 06:00:00 16.2 5 Noroeste 11 Norte 0 -- -- 84
2020-05-19 05:00:00 16.2 6 Oeste 13 Sudoeste 0 -- -- 85
2020-05-19 04:00:00 16.2 8 Sudoeste 12 Sudoeste 0 -- -- 86
2020-05-19 03:00:00 16.2 8 Sudoeste 12 Sudoeste 0 -- -- 85
2020-05-19 02:00:00 16.4 3 Nordeste 15 Nordeste 0 -- -- 89
2020-05-19 01:00:00 16.5 10 Nordeste 18 Nordeste 0 -- -- 88
2020-05-19 00:00:00 16.6 12 Este 22 Nordeste 0 -- -- 88
2020-05-18 23:00:00 16.7 11 Nordeste 27 Este 0 -- -- 87
2020-05-18 22:00:00 16.6 10 Nordeste 23 Nordeste 0 -- -- 85
2020-05-18 21:00:00 16.7 10 Nordeste 17 Este 0 -- -- 85
2020-05-18 20:00:00 16.9 11 Nordeste 20 Nordeste 0 -- -- 83
2020-05-18 19:00:00 17.3 16 Nordeste 28 Nordeste 0 -- -- 81
2020-05-18 18:00:00 17.5 19 Este 27 Este 0 -- -- 80
2020-05-18 17:00:00 18.7 9 Nordeste 21 Nordeste 0 -- -- 77
2020-05-18 16:00:00 20 11 Norte 24 Nordeste 0 -- -- 69
2020-05-18 15:00:00 20.2 14 Nordeste 30 Norte 0 -- -- 67
2020-05-18 14:00:00 19.6 17 Nordeste 27 Este 0 -- -- 70
2020-05-18 13:00:00 19.2 16 Nordeste 25 Este 0 -- -- 74
2020-05-18 12:00:00 17.7 14 Este 22 Este 0 -- -- 78
2020-05-18 11:00:00 16.7 15 Nordeste 26 Nordeste 0 -- -- 82
2020-05-18 10:00:00 16.1 14 Este 26 Este 0 -- -- 86
2020-05-18 09:00:00 15.7 14 Este 29 Nordeste 0.2 -- -- 90
2020-05-18 08:00:00 15.8 11 Nordeste 19 Este 0 -- -- 90
2020-05-18 07:00:00 15.7 4 Sur 15 Sudoeste 0 -- -- 88
2020-05-18 06:00:00 15.7 9 Sudoeste 18 Sudoeste 0 -- -- 89
2020-05-18 05:00:00 15.6 9 Sudoeste 18 Sudoeste 0 -- -- 89
2020-05-18 04:00:00 15.6 10 Este 22 Este 0 -- -- 94
2020-05-18 03:00:00 15.5 7 Sur 17 Sur 0.4 -- -- 90
2020-05-18 02:00:00 15.4 10 Sudoeste 21 Sudoeste 0.2 -- -- 89
2020-05-18 01:00:00 15.9 6 Sudeste 12 Sudoeste 0 -- -- 80
2020-05-18 00:00:00 15.7 5 Sur 27 Nordeste 0 -- -- 82
2020-05-17 23:00:00 16.2 19 Nordeste 29 Este 0 -- -- 80
2020-05-17 22:00:00 16.2 13 Nordeste 21 Este 0 -- -- 76
2020-05-17 21:00:00 16.3 12 Este 20 Nordeste 0 -- -- 73
2020-05-17 20:00:00 16.7 13 Nordeste 22 Este 0 -- -- 73
2020-05-17 19:00:00 17.3 12 Nordeste 19 Nordeste 0 -- -- 70
2020-05-17 18:00:00 17.6 11 Este 21 Este 0 -- -- 71
2020-05-17 17:00:00 18.2 12 Nordeste 23 Nordeste 0 -- -- 65
2020-05-17 16:00:00 19.3 5 Este 17 Nordeste 0 -- -- 54
2020-05-17 15:00:00 18.8 8 Nordeste 17 Nordeste 0 -- -- 57
2020-05-17 14:00:00 18.4 10 Nordeste 17 Este 0 -- -- 60
2020-05-17 13:00:00 16.7 3 Sudeste 12 Sudoeste 0 -- -- 68
2020-05-17 12:00:00 16 4 Noroeste 14 Sudoeste 0 -- -- 70
2020-05-17 11:00:00 15.6 7 Sudoeste 13 Sudoeste 0 -- -- 75
2020-05-17 10:00:00 15.2 7 Sudoeste 15 Sudoeste 0 -- -- 77
2020-05-17 09:00:00 14.6 9 Sudoeste 18 Sudoeste 0 -- -- 82
2020-05-17 08:00:00 15 3 Oeste 12 Nordeste 0 -- -- 79
2020-05-17 07:00:00 15.1 5 Sur 11 Sudeste 0 -- -- 78
2020-05-17 06:00:00 15.2 6 Sudoeste 10 Sudoeste 0 -- -- 72
2020-05-17 05:00:00 15.1 8 Sudoeste 19 Sudoeste 0 -- -- 66
2020-05-17 04:00:00 14.3 10 Sudoeste 16 Sudoeste 0 -- -- 73
2020-05-17 03:00:00 15.1 10 Sudoeste 14 Sudoeste 0 -- -- 67
2020-05-17 02:00:00 15.4 4 Noroeste 15 Este 0 -- -- 68
2020-05-17 01:00:00 15.3 9 Sudoeste 14 Oeste 0 -- -- 71
2020-05-17 00:00:00 15.6 7 Oeste 14 Norte 0 -- -- 76
2020-05-16 23:00:00 15.7 4 Norte 16 Noroeste 0 -- -- 75
2020-05-16 22:00:00 15.7 5 Noroeste 14 Nordeste 0 -- -- 75
2020-05-16 21:00:00 16 6 Noroeste 13 Nordeste 0 -- -- 73
2020-05-16 20:00:00 16.7 3 Sudeste 15 Nordeste 0 -- -- 72
2020-05-16 19:00:00 17.1 10 Nordeste 18 Norte 0 -- -- 70
2020-05-16 18:00:00 16.8 12 Nordeste 22 Norte 0 -- -- 72
2020-05-16 17:00:00 16.2 19 Nordeste 28 Nordeste 0 -- -- 79
2020-05-16 16:00:00 17.9 14 Nordeste 24 Norte 0 -- -- 72
2020-05-16 15:00:00 18.1 12 Nordeste 18 Nordeste 0 -- -- 67
2020-05-16 14:00:00 16.4 6 Norte 28 Nordeste 0 -- -- 76
2020-05-16 13:00:00 16.4 10 Norte 27 Norte 0 -- -- 79
2020-05-16 12:00:00 16.1 11 Noroeste 31 Norte 0 -- -- 81
2020-05-16 11:00:00 18 17 Norte 30 Norte 0 -- -- 70
2020-05-16 10:00:00 17.6 18 Norte 30 Norte 0 -- -- 72
2020-05-16 09:00:00 17.3 18 Norte 27 Norte 0 -- -- 73
2020-05-16 08:00:00 15.3 10 Noroeste 20 Noroeste 0 -- -- 79
2020-05-16 07:00:00 15.2 11 Oeste 19 Oeste 0 -- -- 79
2020-05-16 06:00:00 14.7 12 Oeste 18 Sudoeste 0 -- -- 78
2020-05-16 05:00:00 14.5 13 Oeste 18 Sudoeste 0 -- -- 77
2020-05-16 04:00:00 15.3 9 Oeste 22 Noroeste 0 -- -- 75
2020-05-16 03:00:00 15.6 10 Norte 20 Norte 0 -- -- 75
2020-05-16 02:00:00 15.8 8 Noroeste 22 Norte 0 -- -- 80
2020-05-16 01:00:00 15.7 13 Noroeste 24 Oeste 0 -- -- 78
2020-05-16 00:00:00 15.7 8 Norte 29 Norte 0 -- -- 80
2020-05-15 23:00:00 15.9 13 Norte 27 Norte 0 -- -- 83
2020-05-15 22:00:00 16 16 Norte 28 Norte 0 -- -- 78
2020-05-15 21:00:00 16.1 15 Norte 29 Norte 0 -- -- 76
2020-05-15 20:00:00 16.3 16 Norte 30 Noroeste 0 -- -- 77
2020-05-15 19:00:00 16.6 16 Norte 29 Norte 0 -- -- 75
2020-05-15 18:00:00 16.8 19 Norte 32 Norte 0 -- -- 74
2020-05-15 17:00:00 17.2 21 Norte 35 Norte 0 -- -- 73
2020-05-15 16:00:00 17.3 21 Norte 36 Norte 0 -- -- 71
2020-05-15 15:00:00 17.9 23 Norte 42 Norte 0 -- -- 68
2020-05-15 14:00:00 17.7 26 Norte 41 Nordeste 0 -- -- 64
2020-05-15 13:00:00 17.8 21 Norte 39 Norte 0 -- -- 69
2020-05-15 12:00:00 17.5 22 Norte 42 Norte 0 -- -- 70
2020-05-15 11:00:00 17.2 28 Norte 42 Norte 0 -- -- 78
2020-05-15 10:00:00 17.5 16 Norte 34 Noroeste 0 -- -- 75
2020-05-15 09:00:00 16 23 Noroeste 39 Noroeste 0 -- -- 78
2020-05-15 08:00:00 15.7 17 Oeste 34 Noroeste 0 -- -- 74
2020-05-15 07:00:00 15.1 15 Oeste 32 Oeste 0 -- -- 70
2020-05-15 06:00:00 14.7 21 Oeste 36 Oeste 0 -- -- 75
2020-05-15 05:00:00 14.8 14 Oeste 35 Oeste 0 -- -- 65
2020-05-15 04:00:00 14.7 16 Noroeste 30 Noroeste 0 -- -- 72
2020-05-15 03:00:00 14.7 15 Noroeste 30 Noroeste 0 -- -- 68
2020-05-15 02:00:00 15.1 14 Norte 35 Norte 0 -- -- 66
2020-05-15 01:00:00 15.3 23 Norte 35 Norte 0 -- -- 69
2020-05-15 00:00:00 15 15 Norte 35 Norte 0 -- -- 69
2020-05-14 23:00:00 15.5 18 Norte 38 Norte 0 -- -- 75
2020-05-14 22:00:00 15.3 14 Noroeste 37 Norte 0 -- -- 72
2020-05-14 21:00:00 15.8 21 Norte 42 Norte 0 -- -- 70
2020-05-14 20:00:00 16.3 22 Norte 41 Noroeste 0 -- -- 71
2020-05-14 19:00:00 17.2 18 Norte 45 Norte 0 -- -- 63
2020-05-14 18:00:00 17.5 24 Norte 53 Norte 0 -- -- 62
2020-05-14 17:00:00 17.8 32 Norte 59 Norte 0 -- -- 57
2020-05-14 16:00:00 18 36 Norte 57 Noroeste 0 -- -- 61
2020-05-14 15:00:00 18.3 31 Norte 53 Norte 0 -- -- 65
2020-05-14 14:00:00 18.3 27 Noroeste 53 Norte 0 -- -- 65
2020-05-14 13:00:00 18.2 30 Norte 54 Noroeste 0 -- -- 62
2020-05-14 12:00:00 17.7 28 Norte 50 Oeste 0 -- -- 64
2020-05-14 11:00:00 17 19 Noroeste 42 Norte 0 -- -- 71
2020-05-14 10:00:00 16.6 27 Norte 46 Noroeste 0 -- -- 72
2020-05-14 09:00:00 18.2 14 Noroeste 39 Noroeste 0 -- -- 55
2020-05-14 08:00:00 16 13 Noroeste 37 Oeste 0 -- -- 59
2020-05-14 07:00:00 15.5 17 Noroeste 41 Norte 0 -- -- 73
2020-05-14 06:00:00 15.5 17 Noroeste 44 Norte 0 -- -- 80
2020-05-14 05:00:00 16.1 13 Noroeste 38 Noroeste 0 -- -- 62
2020-05-14 04:00:00 15.6 10 Noroeste 39 Noroeste 0 -- -- 63
2020-05-14 03:00:00 15.9 12 Noroeste 45 Noroeste 0 -- -- 64
2020-05-14 02:00:00 16.3 17 Norte 37 Noroeste 0 -- -- 63
2020-05-14 01:00:00 16.2 14 Noroeste 40 Noroeste 0 -- -- 57
2020-05-14 00:00:00 15.7 12 Noroeste 34 Noroeste 0 -- -- 60
2020-05-13 23:00:00 15.2 10 Noroeste 43 Norte 0 -- -- 67
2020-05-13 22:00:00 15.9 23 Norte 45 Noroeste 0 -- -- 67
2020-05-13 21:00:00 16 13 Noroeste 40 Noroeste 0 -- -- 61
2020-05-13 20:00:00 16.3 27 Norte 44 Noroeste 0 -- -- 67
2020-05-13 19:00:00 17.1 24 Norte 47 Noroeste 0 -- -- 61
2020-05-13 18:00:00 18 20 Norte 43 Noroeste 0 -- -- 64
2020-05-13 17:00:00 18 28 Norte 47 Noroeste 0 -- -- 60
2020-05-13 16:00:00 18.6 29 Norte 52 Noroeste 0 -- -- 60
2020-05-13 15:00:00 18.1 32 Norte 52 Norte 0 -- -- 67
2020-05-13 14:00:00 18.1 33 Norte 52 Norte 0 -- -- 69
2020-05-13 13:00:00 17.6 17 Norte 49 Norte 0 -- -- 78
2020-05-13 12:00:00 18.2 27 Norte 54 Norte 0.2 -- -- 73
2020-05-13 11:00:00 19.3 18 Norte 49 Norte 0 -- -- 70
2020-05-13 10:00:00 19.1 24 Norte 45 Norte 0 -- -- 64
2020-05-13 09:00:00 19.1 21 Noroeste 37 Noroeste 0 -- -- 57
2020-05-13 08:00:00 17.3 18 Oeste 38 Oeste 0 -- -- 64
2020-05-13 07:00:00 16.5 15 Noroeste 38 Oeste 0 -- -- 66
2020-05-13 06:00:00 15.6 19 Oeste 39 Noroeste 0 -- -- 76
2020-05-13 05:00:00 15.6 19 Noroeste 35 Noroeste 0 -- -- 85
2020-05-13 04:00:00 15.4 14 Norte 36 Noroeste 0 -- -- 82
2020-05-13 03:00:00 15.2 19 Norte 36 Norte 0.4 -- -- 91
2020-05-13 02:00:00 15.8 12 Norte 40 Noroeste 0 -- -- 89
2020-05-13 01:00:00 15.8 17 Noroeste 37 Oeste 0.8 -- -- 91
2020-05-13 00:00:00 16.8 14 Noroeste 39 Noroeste 0 -- -- 81
2020-05-12 23:00:00 16.9 11 Noroeste 37 Noroeste 0 -- -- 66
2020-05-12 22:00:00 16.8 17 Noroeste 40 Noroeste 0 -- -- 76
2020-05-12 21:00:00 16.9 17 Noroeste 36 Noroeste 0 -- -- 79
2020-05-12 20:00:00 17.2 18 Noroeste 40 Noroeste 0 -- -- 78
2020-05-12 19:00:00 17.5 15 Noroeste 45 Norte 0 -- -- 77
2020-05-12 18:00:00 19 23 Norte 40 Noroeste 0 -- -- 67
2020-05-12 17:00:00 18.3 16 Noroeste 41 Norte 0.2 -- -- 74
2020-05-12 16:00:00 20.2 19 Norte 44 Norte 0 -- -- 65
2020-05-12 15:00:00 19.4 25 Norte 50 Norte 0 -- -- 64
2020-05-12 14:00:00 19.7 14 Noroeste 50 Norte 0 -- -- 64
2020-05-12 13:00:00 18.3 26 Norte 45 Noroeste 0 -- -- 72
2020-05-12 12:00:00 19.8 23 Norte 43 Noroeste 0 -- -- 53
2020-05-12 11:00:00 19.3 17 Noroeste 38 Norte 0 -- -- 52
2020-05-12 10:00:00 18.1 15 Noroeste 35 Noroeste 0 -- -- 62
2020-05-12 09:00:00 16.2 18 Noroeste 36 Noroeste 0 -- -- 73
2020-05-12 08:00:00 15.9 16 Norte 40 Norte 0 -- -- 76
2020-05-12 07:00:00 15.7 14 Norte 33 Noroeste 0 -- -- 78
2020-05-12 06:00:00 15.4 17 Noroeste 30 Noroeste 0 -- -- 79
2020-05-12 05:00:00 16 13 Noroeste 32 Noroeste 0 -- -- 76
2020-05-12 04:00:00 16.1 17 Noroeste 32 Oeste 0 -- -- 70
2020-05-12 03:00:00 16.3 19 Oeste 34 Oeste 0 -- -- 67
2020-05-12 02:00:00 16.2 21 Oeste 38 Noroeste 0 -- -- 71
2020-05-12 01:00:00 16 14 Oeste 34 Oeste 0 -- -- 67
2020-05-12 00:00:00 16.1 15 Noroeste 39 Oeste 0 -- -- 68
2020-05-11 23:00:00 16.1 22 Noroeste 42 Noroeste 0 -- -- 69
2020-05-11 22:00:00 15.8 27 Noroeste 43 Noroeste 0 -- -- 74
2020-05-11 21:00:00 16.3 28 Noroeste 44 Noroeste 0 -- -- 77
2020-05-11 20:00:00 16.8 24 Noroeste 48 Norte 0 -- -- 78
2020-05-11 19:00:00 18.1 24 Norte 47 Norte 0 -- -- 80
2020-05-11 18:00:00 18 20 Noroeste 53 Norte 0.2 -- -- 85
2020-05-11 17:00:00 20.4 30 Norte 55 Noroeste 0 -- -- 79
2020-05-11 16:00:00 22.7 19 Norte 49 Noroeste 0 -- -- 62
2020-05-11 15:00:00 22.5 23 Norte 55 Noroeste 0 -- -- 60
2020-05-11 14:00:00 22.5 24 Norte 43 Norte 0 -- -- 56
2020-05-11 13:00:00 22.2 19 Norte 45 Noroeste 0 -- -- 57
2020-05-11 12:00:00 22.2 24 Norte 42 Norte 0 -- -- 56
2020-05-11 11:00:00 21.7 10 Norte 39 Noroeste 0 -- -- 67
2020-05-11 10:00:00 21 13 Norte 36 Norte 0 -- -- 65
2020-05-11 09:00:00 19.2 18 Noroeste 34 Noroeste 0 -- -- 69
2020-05-11 08:00:00 17.5 14 Noroeste 33 Noroeste 0 -- -- 75
2020-05-11 07:00:00 16.6 13 Noroeste 33 Noroeste 0 -- -- 79
2020-05-11 06:00:00 16.5 15 Norte 30 Noroeste 0 -- -- 82
2020-05-11 05:00:00 16.4 15 Noroeste 36 Oeste 0 -- -- 85
2020-05-11 04:00:00 16.9 24 Oeste 43 Noroeste 0 -- -- 80
2020-05-11 03:00:00 16.7 18 Noroeste 42 Noroeste 0 -- -- 84
2020-05-11 02:00:00 16.7 24 Norte 36 Norte 0 -- -- 88
2020-05-11 01:00:00 17.1 19 Norte 29 Norte 0 -- -- 83
2020-05-11 00:00:00 17.5 12 Noroeste 32 Noroeste 0 -- -- 81
2020-05-10 23:00:00 17.1 13 Norte 34 Noroeste 0 -- -- 84
2020-05-10 22:00:00 17.1 22 Norte 34 Norte 0 -- -- 85
2020-05-10 21:00:00 17.4 20 Norte 35 Norte 0 -- -- 85
2020-05-10 20:00:00 18 23 Norte 42 Noroeste 0 -- -- 78
2020-05-10 19:00:00 18.7 28 Norte 42 Norte 0 -- -- 79
2020-05-10 18:00:00 19.4 31 Norte 49 Norte 0 -- -- 76
2020-05-10 17:00:00 20.8 27 Norte 44 Norte 0 -- -- 72
2020-05-10 16:00:00 20.8 29 Norte 51 Norte 0 -- -- 70
2020-05-10 15:00:00 22 26 Norte 41 Norte 0 -- -- 68
2020-05-10 14:00:00 21.7 26 Norte 49 Norte 0 -- -- 71
2020-05-10 13:00:00 21.2 30 Norte 48 Norte 0 -- -- 69
2020-05-10 12:00:00 19.3 31 Norte 54 Norte 0 -- -- 75
2020-05-10 11:00:00 21.4 21 Norte 38 Norte 0 -- -- 62
2020-05-10 10:00:00 21.1 14 Norte 34 Oeste 0 -- -- 61
2020-05-10 09:00:00 19.2 17 Noroeste 35 Oeste 0 -- -- 66
2020-05-10 08:00:00 18.2 18 Oeste 45 Noroeste 0 -- -- 68
2020-05-10 07:00:00 15.8 24 Noroeste 42 Noroeste 0 -- -- 81
2020-05-10 06:00:00 15.7 20 Noroeste 35 Noroeste 0 -- -- 80
2020-05-10 05:00:00 15.6 13 Norte 30 Noroeste 0 -- -- 85
2020-05-10 04:00:00 15.7 14 Noroeste 28 Norte 0 -- -- 83
2020-05-10 03:00:00 16 18 Norte 28 Noroeste 0 -- -- 85
2020-05-10 02:00:00 16.1 15 Noroeste 30 Noroeste 0 -- -- 83
2020-05-10 01:00:00 16.2 19 Norte 29 Noroeste 0 -- -- 82
2020-05-10 00:00:00 16.1 14 Norte 26 Norte 0 -- -- 82
2020-05-09 23:00:00 16.5 19 Norte 33 Norte 0 -- -- 83
2020-05-09 22:00:00 16.8 17 Norte 33 Norte 0 -- -- 83
2020-05-09 21:00:00 17.2 17 Norte 37 Norte 0 -- -- 83
2020-05-09 20:00:00 17.5 20 Norte 35 Nordeste 0 -- -- 80
2020-05-09 19:00:00 18.8 17 Norte 33 Norte 0 -- -- 76
2020-05-09 18:00:00 19.6 20 Norte 39 Norte 0 -- -- 72
2020-05-09 17:00:00 20.4 15 Norte 36 Noroeste 0 -- -- 68
2020-05-09 16:00:00 21.3 15 Norte 39 Norte 0 -- -- 65
2020-05-09 15:00:00 21.3 20 Norte 38 Norte 0 -- -- 67
2020-05-09 14:00:00 20.4 23 Norte 33 Norte 0 -- -- 76
2020-05-09 13:00:00 20.5 18 Norte 33 Norte 0 -- -- 77
2020-05-09 12:00:00 18.2 17 Norte 31 Norte 0.2 -- -- 89
2020-05-09 11:00:00 17.4 15 Norte 33 Norte 0.2 -- -- 94
2020-05-09 10:00:00 17.7 12 Noroeste 24 Oeste 0.2 -- -- 89
2020-05-09 09:00:00 16.7 12 Noroeste 31 Norte 0.4 -- -- 92
2020-05-09 08:00:00 16.8 3 Oeste 18 Norte 0.4 -- -- 94
2020-05-09 07:00:00 17.2 5 Nordeste 24 Noroeste 0 -- -- 87
2020-05-09 06:00:00 16.1 4 Norte 14 Norte 0 -- -- 84
2020-05-09 05:00:00 15.8 5 Sudoeste 19 Noroeste 0 -- -- 78
2020-05-09 04:00:00 15.7 7 Oeste 15 Noroeste 0 -- -- 83
2020-05-09 03:00:00 15.5 5 Sudoeste 10 Sudoeste 0 -- -- 87
2020-05-09 02:00:00 15.8 8 Sudoeste 15 Sudoeste 0 -- -- 84
2020-05-09 01:00:00 16 8 Sudoeste 12 Sudoeste 0 -- -- 89
2020-05-09 00:00:00 16.1 6 Sudoeste 11 Sudoeste 0 -- -- 83
2020-05-08 23:00:00 16.4 4 Sudoeste 12 Oeste 0 -- -- 89
2020-05-08 22:00:00 16.8 6 Sudoeste 9 Sudoeste 0 -- -- 86
2020-05-08 21:00:00 17.7 4 Sudoeste 12 Sudeste 0 -- -- 83
2020-05-08 20:00:00 19.5 8 Sudeste 14 Sudeste 0 -- -- 75
2020-05-08 19:00:00 21.5 5 Sur 22 Oeste 0 -- -- 65
2020-05-08 18:00:00 22 9 Oeste 20 Oeste 0 -- -- 62
2020-05-08 17:00:00 22.3 8 Oeste 22 Norte 0 -- -- 61
2020-05-08 16:00:00 22.3 15 Nordeste 30 Nordeste 0 -- -- 66
2020-05-08 15:00:00 21.9 12 Nordeste 19 Nordeste 0 -- -- 66
2020-05-08 14:00:00 21.9 12 Nordeste 19 Norte 0 -- -- 67
2020-05-08 13:00:00 21.5 12 Nordeste 23 Nordeste 0 -- -- 68
2020-05-08 12:00:00 21.6 13 Nordeste 27 Nordeste 0 -- -- 66
2020-05-08 11:00:00 21.3 14 Nordeste 23 Nordeste 0 -- -- 63
2020-05-08 10:00:00 20.2 13 Nordeste 22 Nordeste 0 -- -- 70
2020-05-08 09:00:00 18.5 6 Nordeste 11 Sudoeste 0 -- -- 73
2020-05-08 08:00:00 15.2 9 Sudoeste 16 Sudoeste 0 -- -- 79
2020-05-08 07:00:00 14.7 11 Sudoeste 15 Oeste 0 -- -- 79
2020-05-08 06:00:00 14.4 11 Oeste 17 Oeste 0 -- -- 79
2020-05-08 05:00:00 14.5 9 Oeste 15 Oeste 0 -- -- 80
2020-05-08 04:00:00 14.7 9 Oeste 18 Sudoeste 0 -- -- 77
2020-05-08 03:00:00 15.1 10 Oeste 19 Sudoeste 0 -- -- 74
2020-05-08 02:00:00 15.1 9 Oeste 18 Sudoeste 0 -- -- 76
2020-05-08 01:00:00 15.2 12 Sudoeste 17 Sudoeste 0 -- -- 76
2020-05-08 00:00:00 15.5 12 Sudoeste 18 Sudoeste 0 -- -- 78
2020-05-07 23:00:00 15.5 10 Oeste 17 Oeste 0 -- -- 82
2020-05-07 22:00:00 15.9 6 Noroeste 15 Norte 0 -- -- 85
2020-05-07 21:00:00 16.3 5 Noroeste 17 Noroeste 0 -- -- 84
2020-05-07 20:00:00 16.8 10 Norte 24 Nordeste 0 -- -- 81
2020-05-07 19:00:00 17.8 16 Norte 28 Norte 0 -- -- 77
2020-05-07 18:00:00 18.1 15 Norte 27 Nordeste 0 -- -- 76
2020-05-07 17:00:00 18.9 17 Nordeste 31 Norte 0 -- -- 75
2020-05-07 16:00:00 20.7 17 Nordeste 33 Norte 0 -- -- 68
2020-05-07 15:00:00 20.6 19 Nordeste 34 Norte 0 -- -- 68
2020-05-07 14:00:00 20.3 20 Nordeste 34 Norte 0 -- -- 66
2020-05-07 13:00:00 20.1 18 Nordeste 37 Norte 0 -- -- 72
2020-05-07 12:00:00 19.7 16 Norte 36 Norte 0 -- -- 73
2020-05-07 11:00:00 19.3 15 Norte 28 Norte 0 -- -- 73
2020-05-07 10:00:00 18.3 14 Norte 23 Norte 0 -- -- 78
2020-05-07 09:00:00 18.2 9 Norte 15 Norte 0 -- -- 75
2020-05-07 08:00:00 15.2 8 Oeste 18 Sudoeste 0 -- -- 83
2020-05-07 07:00:00 15.1 13 Sudoeste 22 Oeste 0 -- -- 78
2020-05-07 06:00:00 15.1 13 Oeste 20 Oeste 0 -- -- 84
2020-05-07 05:00:00 14.6 12 Sudoeste 19 Oeste 0 -- -- 79
2020-05-07 04:00:00 14.8 11 Oeste 17 Sudoeste 0 -- -- 83
2020-05-07 03:00:00 14.8 9 Oeste 17 Sudoeste 0 -- -- 87
2020-05-07 02:00:00 14.7 12 Sudoeste 19 Sudoeste 0 -- -- 86
2020-05-07 01:00:00 15.1 11 Sudoeste 17 Sudoeste 0 -- -- 85
2020-05-07 00:00:00 15.1 10 Sudoeste 15 Sudoeste 0 -- -- 85
2020-05-06 23:00:00 15.3 11 Sudoeste 17 Sudoeste 0 -- -- 87
2020-05-06 22:00:00 15.4 12 Sudoeste 21 Sudoeste 0 -- -- 89
2020-05-06 21:00:00 15.2 11 Sudoeste 20 Sudoeste 0 -- -- 89
2020-05-06 20:00:00 15.9 9 Oeste 15 Oeste 0 -- -- 90
2020-05-06 19:00:00 16 7 Sudoeste 17 Sudoeste 0.6 -- -- 93
2020-05-06 18:00:00 16.3 6 Oeste 16 Norte 5 -- -- 92
2020-05-06 17:00:00 16.5 6 Sudoeste 17 Norte 2.8 -- -- 91
2020-05-06 16:00:00 17.8 12 Nordeste 19 Norte 0 -- -- 85
2020-05-06 15:00:00 19.2 5 Norte 16 Nordeste 0 -- -- 71
2020-05-06 14:00:00 19.6 11 Nordeste 22 Este 0 -- -- 69
2020-05-06 13:00:00 18.9 8 Norte 18 Nordeste 0 -- -- 77
2020-05-06 12:00:00 18.8 8 Nordeste 19 Este 0 -- -- 77
2020-05-06 11:00:00 18.8 6 Este 13 Nordeste 0 -- -- 70
2020-05-06 10:00:00 17.7 4 Este 6 Nordeste 0 -- -- 74
2020-05-06 09:00:00 16.6 3 Sudoeste 8 Oeste 0 -- -- 76
2020-05-06 08:00:00 15.8 7 Oeste 14 Sudoeste 0 -- -- 76
2020-05-06 07:00:00 15.5 11 Sudoeste 15 Sudoeste 0 -- -- 76
2020-05-06 06:00:00 15.3 10 Sudoeste 14 Sudoeste 0 -- -- 77
2020-05-06 05:00:00 15.8 11 Sudoeste 15 Sudoeste 0 -- -- 73
2020-05-06 04:00:00 15.9 11 Sudoeste 15 Sudoeste 0 -- -- 75
2020-05-06 03:00:00 15.4 13 Sudoeste 16 Sudoeste 0 -- -- 78
2020-05-06 02:00:00 15.5 10 Sudoeste 12 Sudoeste 0 -- -- 78
2020-05-06 01:00:00 16.1 9 Sudoeste 14 Sudoeste 0 -- -- 77
2020-05-06 00:00:00 16.1 10 Sudoeste 16 Sudoeste 0 -- -- 73
2020-05-05 23:00:00 15.9 12 Sudoeste 16 Sudoeste 0 -- -- 80
2020-05-05 22:00:00 16.2 10 Sudoeste 14 Sudoeste 0 -- -- 78
2020-05-05 21:00:00 17 4 Norte 10 Nordeste 0 -- -- 79
2020-05-05 20:00:00 17.7 7 Nordeste 13 Nordeste 0 -- -- 77
2020-05-05 19:00:00 19.3 10 Nordeste 18 Nordeste 0 -- -- 67
2020-05-05 18:00:00 20.7 14 Nordeste 22 Nordeste 0 -- -- 62
2020-05-05 17:00:00 21.7 12 Nordeste 24 Norte 0 -- -- 59
2020-05-05 16:00:00 22.1 14 Nordeste 21 Nordeste 0 -- -- 58
2020-05-05 15:00:00 22.4 14 Nordeste 24 Nordeste 0 -- -- 55
2020-05-05 14:00:00 22 13 Nordeste 24 Este 0 -- -- 51
2020-05-05 13:00:00 22.2 17 Nordeste 27 Nordeste 0 -- -- 55
2020-05-05 12:00:00 22.3 16 Nordeste 28 Norte 0 -- -- 49
2020-05-05 11:00:00 21.2 17 Norte 29 Nordeste 0 -- -- 53
2020-05-05 10:00:00 20.6 10 Norte 29 Norte 0 -- -- 55
2020-05-05 09:00:00 18.6 10 Norte 17 Norte 0 -- -- 62
2020-05-05 08:00:00 15.1 12 Sudoeste 19 Sudoeste 0 -- -- 62
2020-05-05 07:00:00 14.5 11 Oeste 16 Oeste 0 -- -- 67
2020-05-05 06:00:00 14.6 11 Sudoeste 18 Sudoeste 0 -- -- 64
2020-05-05 05:00:00 14.6 13 Sudoeste 19 Sudoeste 0 -- -- 64
2020-05-05 04:00:00 14.6 9 Oeste 22 Sudoeste 0 -- -- 66
2020-05-05 03:00:00 14.9 12 Oeste 19 Sudoeste 0 -- -- 64
2020-05-05 02:00:00 14.8 10 Sudoeste 19 Sudoeste 0 -- -- 69
2020-05-05 01:00:00 15.1 15 Sudoeste 19 Sudoeste 0 -- -- 63
2020-05-05 00:00:00 15.9 14 Sudoeste 21 Sudoeste 0 -- -- 64
2020-05-04 23:00:00 15.8 9 Oeste 14 Oeste 0 -- -- 64
2020-05-04 22:00:00 16.5 6 Oeste 23 Sudoeste 0 -- -- 68
2020-05-04 21:00:00 17.1 12 Oeste 23 Oeste 0 -- -- 73
2020-05-04 20:00:00 18.3 9 Oeste 23 Oeste 0 -- -- 63
2020-05-04 19:00:00 19.6 11 Oeste 27 Oeste 0 -- -- 57
2020-05-04 18:00:00 20 10 Norte 28 Noroeste 0 -- -- 51
2020-05-04 17:00:00 19.4 9 Noroeste 24 Oeste 0 -- -- 61
2020-05-04 16:00:00 19 12 Noroeste 28 Oeste 0 -- -- 67
2020-05-04 15:00:00 19.4 10 Oeste 27 Oeste 0 -- -- 65
2020-05-04 14:00:00 19.1 10 Sudoeste 28 Noroeste 0 -- -- 67
2020-05-04 13:00:00 19.5 10 Oeste 25 Noroeste 0 -- -- 63
2020-05-04 12:00:00 20.1 13 Noroeste 28 Oeste 0 -- -- 62
2020-05-04 11:00:00 19.6 13 Noroeste 26 Norte 0 -- -- 67
2020-05-04 10:00:00 20.6 13 Norte 27 Norte 0 -- -- 63
2020-05-04 09:00:00 19.4 4 Nordeste 14 Sudoeste 0 -- -- 66
2020-05-04 08:00:00 16.4 11 Sudoeste 20 Oeste 0 -- -- 73
2020-05-04 07:00:00 16.3 14 Sudoeste 25 Sudoeste 0 -- -- 72
2020-05-04 06:00:00 16.3 14 Sudoeste 22 Sudoeste 0 -- -- 67
2020-05-04 05:00:00 16.4 14 Sudoeste 19 Sudoeste 0 -- -- 67
2020-05-04 04:00:00 16.5 12 Sudoeste 17 Oeste 0 -- -- 68
2020-05-04 03:00:00 17.1 12 Sudoeste 20 Oeste 0 -- -- 69
2020-05-04 02:00:00 17.1 13 Sudoeste 20 Oeste 0 -- -- 74
2020-05-04 01:00:00 17.7 11 Oeste 27 Noroeste 0 -- -- 75
2020-05-04 00:00:00 17.6 15 Sudoeste 23 Sudoeste 0 -- -- 71
2020-05-03 23:00:00 17 6 Oeste 12 Sudoeste 0 -- -- 83
2020-05-03 22:00:00 17.3 8 Sudoeste 13 Sudoeste 0 -- -- 83
2020-05-03 21:00:00 18 7 Sudoeste 11 Sudoeste 0 -- -- 80
2020-05-03 20:00:00 19.4 8 Sudeste 15 Este 0 -- -- 73
2020-05-03 19:00:00 21 9 Este 19 Sudeste 0 -- -- 67
2020-05-03 18:00:00 22 10 Este 23 Este 0 -- -- 63
2020-05-03 17:00:00 22.6 12 Este 19 Nordeste 0 -- -- 62
2020-05-03 16:00:00 21.9 9 Nordeste 20 Nordeste 0 -- -- 63
2020-05-03 15:00:00 22.3 12 Nordeste 22 Nordeste 0 -- -- 63
2020-05-03 14:00:00 21.7 11 Nordeste 21 Este 0 -- -- 65
2020-05-03 13:00:00 21.6 11 Nordeste 20 Nordeste 0 -- -- 64
2020-05-03 12:00:00 22 11 Nordeste 22 Este 0 -- -- 62
2020-05-03 11:00:00 20.8 13 Este 22 Este 0 -- -- 65
2020-05-03 10:00:00 19.2 10 Este 15 Este 0 -- -- 71
2020-05-03 09:00:00 16.7 5 Sudoeste 14 Sudoeste 0 -- -- 77
2020-05-03 08:00:00 15.5 8 Sudoeste 15 Sudoeste 0 -- -- 82
2020-05-03 07:00:00 14.7 10 Sudoeste 14 Sudoeste 0 -- -- 85
2020-05-03 06:00:00 15.3 9 Oeste 16 Sudoeste 0 -- -- 83
2020-05-03 05:00:00 15.8 11 Sudoeste 17 Sudoeste 0 -- -- 79
2020-05-03 04:00:00 15.8 9 Sudoeste 16 Sudoeste 0 -- -- 82
2020-05-03 03:00:00 16.1 7 Sudoeste 19 Oeste 0 -- -- 82
2020-05-03 02:00:00 16.4 8 Sudoeste 17 Sudoeste 0 -- -- 82
2020-05-03 01:00:00 16.5 9 Sudoeste 14 Sudoeste 0 -- -- 82
2020-05-03 00:00:00 16.9 6 Sudeste 10 Sur 0 -- -- 85
2020-05-02 23:00:00 17 5 Sudoeste 13 Sudoeste 0 -- -- 81
2020-05-02 22:00:00 16.9 8 Nordeste 18 Norte 0 -- -- 85
2020-05-02 21:00:00 16.9 11 Norte 22 Norte 0 -- -- 86
2020-05-02 20:00:00 17.9 6 Este 12 Este 0 -- -- 82
2020-05-02 19:00:00 18.3 5 Este 15 Este 0 -- -- 80
2020-05-02 18:00:00 18.8 9 Este 18 Este 0 -- -- 78
2020-05-02 17:00:00 19.1 8 Este 21 Nordeste 0 -- -- 76
2020-05-02 16:00:00 19.9 11 Este 25 Este 0 -- -- 72
2020-05-02 15:00:00 21.1 13 Este 26 Este 0 -- -- 68
2020-05-02 14:00:00 21 14 Este 27 Este 0 -- -- 67
2020-05-02 13:00:00 19.7 13 Este 29 Este 0 -- -- 71
2020-05-02 12:00:00 19.4 12 Sudeste 28 Este 0 -- -- 72
2020-05-02 11:00:00 18.5 12 Este 23 Este 0 -- -- 75
2020-05-02 10:00:00 16.9 9 Sudeste 19 Sudeste 0 -- -- 83
2020-05-02 09:00:00 16.1 10 Sudoeste 22 Sur 0 -- -- 85
2020-05-02 08:00:00 15.8 12 Sudoeste 22 Sudoeste 0 -- -- 84
2020-05-02 07:00:00 15.8 10 Sudoeste 21 Sudoeste 0 -- -- 83
2020-05-02 06:00:00 15.7 12 Sudoeste 23 Sudoeste 0 -- -- 83
2020-05-02 05:00:00 15.8 16 Sudoeste 26 Sudoeste 0 -- -- 84
2020-05-02 04:00:00 15.7 13 Sudoeste 24 Sudoeste 0 -- -- 85
2020-05-02 03:00:00 15.9 11 Sudoeste 20 Sudoeste 0 -- -- 85
2020-05-02 02:00:00 16 10 Sudoeste 23 Sudoeste 0 -- -- 83
2020-05-02 01:00:00 16.2 10 Sudoeste 19 Sur 0 -- -- 83
2020-05-02 00:00:00 16.5 6 Sur 14 Sudoeste 0 -- -- 82
2020-05-01 23:00:00 16.4 10 Sudoeste 12 Sudoeste 0 -- -- 82
2020-05-01 22:00:00 16.9 2 Sur 10 Sur 0 -- -- 81
2020-05-01 21:00:00 17.1 8 Este 15 Sudeste 0 -- -- 80
2020-05-01 20:00:00 17.7 7 Sudeste 18 Este 0 -- -- 80
2020-05-01 19:00:00 18.5 10 Este 21 Este 0 -- -- 78
2020-05-01 18:00:00 19.6 9 Sudeste 26 Este 0 -- -- 74
2020-05-01 17:00:00 20.1 12 Este 27 Este 0 -- -- 72
2020-05-01 16:00:00 20.3 13 Este 29 Este 0 -- -- 71
2020-05-01 15:00:00 20.3 13 Sudeste 28 Este 0 -- -- 70
2020-05-01 14:00:00 20.4 13 Este 29 Este 0 -- -- 70
2020-05-01 13:00:00 19.9 13 Este 27 Este 0 -- -- 71
2020-05-01 12:00:00 19.6 14 Este 29 Nordeste 0 -- -- 71
2020-05-01 11:00:00 19 13 Este 26 Este 0 -- -- 73
2020-05-01 10:00:00 18 11 Sudeste 19 Este 0 -- -- 76
2020-05-01 09:00:00 17.3 6 Sudeste 13 Sudeste 0 -- -- 81
2020-05-01 08:00:00 14.8 8 Sudoeste 13 Sudoeste 0 -- -- 91
2020-05-01 07:00:00 14.2 10 Sudoeste 13 Sudoeste 0 -- -- 93
2020-05-01 06:00:00 14.6 9 Sudoeste 13 Sudoeste 0 -- -- 93
2020-05-01 05:00:00 14.3 7 Sudoeste 10 Sudoeste 0 -- -- 94
2020-05-01 04:00:00 14.6 5 Sudoeste 9 Sudoeste 0 -- -- 94
2020-05-01 03:00:00 14.7 4 Sudoeste 8 Sudoeste 0 -- -- 93
2020-05-01 02:00:00 14.9 6 Sudoeste 10 Sudoeste 0 -- -- 90
2020-05-01 01:00:00 15.7 6 Sudoeste 9 Sudoeste 0 -- -- 87
2020-05-01 00:00:00 15.2 5 Oeste 9 Sudoeste 0 -- -- 88
2020-04-30 23:00:00 16.1 4 Sudoeste 9 Sudoeste 0 -- -- 87
2020-04-30 22:00:00 16.7 3 Sudoeste 9 Este 0 -- -- 83
2020-04-30 21:00:00 17.1 5 Nordeste 10 Nordeste 0 -- -- 83
2020-04-30 20:00:00 18.2 5 Este 14 Nordeste 0 -- -- 79
2020-04-30 19:00:00 18.9 8 Nordeste 18 Este 0 -- -- 75
2020-04-30 18:00:00 20.8 10 Este 20 Este 0 -- -- 70
2020-04-30 17:00:00 21.2 11 Este 23 Este 0 -- -- 67
2020-04-30 16:00:00 21.8 13 Este 24 Este 0 -- -- 64
2020-04-30 15:00:00 21.5 11 Este 24 Este 0 -- -- 66
2020-04-30 14:00:00 21.7 12 Este 23 Este 0 -- -- 64
2020-04-30 13:00:00 21.6 12 Este 24 Este 0 -- -- 65
2020-04-30 12:00:00 21 10 Este 24 Nordeste 0 -- -- 66
2020-04-30 11:00:00 21 11 Este 17 Este 0 -- -- 66
2020-04-30 10:00:00 19.3 9 Nordeste 14 Este 0 -- -- 72
2020-04-30 09:00:00 17.7 5 Este 9 Nordeste 0 -- -- 77
2020-04-30 08:00:00 14.4 5 Sudoeste 10 Sudoeste 0 -- -- 89
2020-04-30 07:00:00 13.6 5 Oeste 13 Oeste 0 -- -- 88
2020-04-30 06:00:00 13.6 6 Oeste 12 Sudoeste 0 -- -- 85
2020-04-30 05:00:00 13.6 8 Sudoeste 13 Sudoeste 0 -- -- 85
2020-04-30 04:00:00 13.8 12 Sudoeste 16 Sudoeste 0 -- -- 85
2020-04-30 03:00:00 14 10 Sudoeste 14 Sudoeste 0 -- -- 88
2020-04-30 02:00:00 14.2 10 Sudoeste 15 Sudoeste 0 -- -- 87
2020-04-30 01:00:00 14.2 11 Sudoeste 15 Sudoeste 0 -- -- 83
2020-04-30 00:00:00 14.9 9 Oeste 15 Sudoeste 0 -- -- 81
2020-04-29 23:00:00 15 8 Sudoeste 13 Sudoeste 0 -- -- 81
2020-04-29 22:00:00 15.3 4 Sudoeste 9 Sudoeste 0 -- -- 81
2020-04-29 21:00:00 16 4 Este 15 Este 0 -- -- 79
2020-04-29 20:00:00 17.2 10 Nordeste 17 Este 0 -- -- 76
2020-04-29 19:00:00 18.8 8 Este 18 Este 0 -- -- 70
2020-04-29 18:00:00 18.9 11 Este 23 Este 0 -- -- 71
2020-04-29 17:00:00 19.8 15 Este 26 Este 0 -- -- 67
2020-04-29 16:00:00 19.7 12 Sudeste 23 Este 0 -- -- 66
2020-04-29 15:00:00 20 17 Este 28 Este 0 -- -- 67
2020-04-29 14:00:00 20.3 15 Este 23 Este 0 -- -- 64
2020-04-29 13:00:00 20 13 Nordeste 24 Este 0 -- -- 67
2020-04-29 12:00:00 19 13 Nordeste 23 Nordeste 0 -- -- 72
2020-04-29 11:00:00 21.1 15 Este 24 Este 0 -- -- 65
2020-04-29 10:00:00 19.2 10 Nordeste 19 Nordeste 0 -- -- 70
2020-04-29 09:00:00 17 4 Nordeste 12 Sudoeste 0 -- -- 78
2020-04-29 08:00:00 14.5 7 Sudoeste 14 Sudoeste 0 -- -- 86
2020-04-29 07:00:00 14 6 Oeste 12 Sudoeste 0 -- -- 85
2020-04-29 06:00:00 14.4 8 Sudoeste 15 Sudoeste 0 -- -- 86
2020-04-29 05:00:00 14.2 11 Sudoeste 15 Sudoeste 0 -- -- 82
2020-04-29 04:00:00 14.8 13 Sudoeste 18 Sudoeste 0 -- -- 78
2020-04-29 03:00:00 14.7 14 Sudoeste 19 Sudoeste 0 -- -- 80
2020-04-29 02:00:00 15 10 Sudoeste 17 Sudoeste 0 -- -- 78
2020-04-29 01:00:00 15.4 8 Sudoeste 11 Sudoeste 0 -- -- 84
2020-04-29 00:00:00 15.4 5 Oeste 10 Sudoeste 0 -- -- 84
2020-04-28 23:00:00 16.2 4 Nordeste 9 Este 0 -- -- 83
2020-04-28 22:00:00 16.5 6 Este 12 Nordeste 0 -- -- 82
2020-04-28 21:00:00 16.6 8 Nordeste 15 Este 0 -- -- 82
2020-04-28 20:00:00 17.3 10 Este 18 Nordeste 0 -- -- 80
2020-04-28 19:00:00 17.8 10 Este 19 Nordeste 0 -- -- 79
2020-04-28 18:00:00 18.8 10 Nordeste 21 Este 0 -- -- 74
2020-04-28 17:00:00 19.8 10 Nordeste 19 Norte 0 -- -- 67
2020-04-28 16:00:00 20.2 13 Este 21 Nordeste 0 -- -- 65
2020-04-28 15:00:00 19.1 9 Nordeste 26 Nordeste 0 -- -- 66
2020-04-28 14:00:00 20.6 13 Nordeste 22 Nordeste 0 -- -- 60
2020-04-28 13:00:00 20.4 14 Nordeste 24 Norte 0 -- -- 60
2020-04-28 12:00:00 20.2 14 Nordeste 26 Norte 0 -- -- 61
2020-04-28 11:00:00 17.7 14 Norte 27 Nordeste 0 -- -- 68
2020-04-28 10:00:00 17.1 13 Norte 22 Norte 0 -- -- 73
2020-04-28 09:00:00 15.7 6 Noroeste 18 Oeste 0 -- -- 81
2020-04-28 08:00:00 15.1 8 Noroeste 18 Norte 0 -- -- 86
2020-04-28 07:00:00 15.1 6 Oeste 15 Oeste 0 -- -- 82
2020-04-28 06:00:00 14.8 10 Sudoeste 15 Sudoeste 0 -- -- 80
2020-04-28 05:00:00 14.8 6 Oeste 13 Sudoeste 0.2 -- -- 85
2020-04-28 04:00:00 14.9 11 Sudoeste 15 Sudoeste 0 -- -- 82
2020-04-28 03:00:00 15.4 8 Sudoeste 15 Sudoeste 0 -- -- 75
2020-04-28 02:00:00 15.2 12 Sudoeste 16 Sudoeste 0 -- -- 80
2020-04-28 01:00:00 15.2 8 Oeste 13 Oeste 0 -- -- 78
2020-04-28 00:00:00 15.8 9 Oeste 23 Noroeste 0 -- -- 81
2020-04-27 23:00:00 16 12 Noroeste 25 Noroeste 0 -- -- 73
2020-04-27 22:00:00 15.8 13 Noroeste 23 Noroeste 0 -- -- 79
2020-04-27 21:00:00 16.2 13 Noroeste 33 Noroeste 0 -- -- 77
2020-04-27 20:00:00 16.8 14 Noroeste 33 Noroeste 0 -- -- 72
2020-04-27 19:00:00 18.1 18 Noroeste 43 Noroeste 0 -- -- 66
2020-04-27 18:00:00 18.1 25 Noroeste 37 Noroeste 0 -- -- 69
2020-04-27 17:00:00 19.7 17 Noroeste 32 Noroeste 0 -- -- 65
2020-04-27 16:00:00 19.6 9 Norte 26 Noroeste 0 -- -- 66
2020-04-27 15:00:00 18.8 16 Norte 35 Noroeste 0 -- -- 71
2020-04-27 14:00:00 18.5 14 Norte 32 Norte 0 -- -- 74
2020-04-27 13:00:00 19.1 16 Norte 28 Noroeste 0 -- -- 69
2020-04-27 12:00:00 19.4 8 Norte 31 Norte 0 -- -- 67
2020-04-27 11:00:00 19.1 17 Norte 25 Norte 0 -- -- 75
2020-04-27 10:00:00 19.8 8 Este 17 Este 0 -- -- 68
2020-04-27 09:00:00 17.5 5 Sudeste 14 Noroeste 0 -- -- 72
2020-04-27 08:00:00 16.5 8 Noroeste 22 Noroeste 0 -- -- 71
2020-04-27 07:00:00 15.3 7 Sudoeste 16 Sudoeste 0 -- -- 71
2020-04-27 06:00:00 14.5 4 Oeste 17 Oeste 0 -- -- 72
2020-04-27 05:00:00 14.3 13 Sudoeste 20 Sudoeste 0 -- -- 79
2020-04-27 04:00:00 14.3 10 Sudoeste 16 Sudoeste 0 -- -- 77
2020-04-27 03:00:00 14.3 9 Oeste 15 Sudoeste 0 -- -- 77
2020-04-27 02:00:00 15 9 Oeste 19 Oeste 0 -- -- 74
2020-04-27 01:00:00 15.5 10 Oeste 22 Oeste 0 -- -- 76
2020-04-27 00:00:00 15.8 13 Oeste 27 Noroeste 0 -- -- 78
2020-04-26 23:00:00 15.4 11 Sudoeste 19 Oeste 0 -- -- 79
2020-04-26 22:00:00 16 7 Oeste 21 Oeste 0 -- -- 73
2020-04-26 21:00:00 16.3 15 Noroeste 30 Oeste 0 -- -- 79
2020-04-26 20:00:00 17.1 12 Noroeste 21 Noroeste 0 -- -- 76
2020-04-26 19:00:00 17.9 12 Norte 20 Norte 0 -- -- 72
2020-04-26 18:00:00 18 12 Sur 23 Nordeste 0 -- -- 74
2020-04-26 17:00:00 19.5 16 Este 31 Este 0 -- -- 67
2020-04-26 16:00:00 21.7 19 Este 29 Nordeste 0 -- -- 58
2020-04-26 15:00:00 21.5 13 Nordeste 30 Nordeste 0 -- -- 57
2020-04-26 14:00:00 20.6 17 Nordeste 30 Norte 0 -- -- 56
2020-04-26 13:00:00 20.4 17 Nordeste 29 Este 0 -- -- 57
2020-04-26 12:00:00 20.2 15 Nordeste 30 Noroeste 0 -- -- 54
2020-04-26 11:00:00 20.4 17 Este 24 Este 0 -- -- 63
2020-04-26 10:00:00 17.6 11 Norte 19 Norte 0 -- -- 69
2020-04-26 09:00:00 -- 0 Calma -- -- 0 -- -- --
2020-04-26 08:00:00 13.4 13 Sudoeste 18 Sudoeste 0 -- -- 62
2020-04-26 07:00:00 13.1 14 Sudoeste 19 Sudoeste 0 -- -- 65
2020-04-26 06:00:00 13 15 Sudoeste 21 Sudoeste 0 -- -- 66
2020-04-26 05:00:00 13.2 15 Sudoeste 22 Sudoeste 0 -- -- 71
2020-04-26 04:00:00 13.3 13 Sudoeste 19 Sudoeste 0 -- -- 77
2020-04-26 03:00:00 13.2 11 Sudoeste 19 Sudoeste 0 -- -- 74
2020-04-26 02:00:00 14 12 Sudoeste 17 Sudoeste 0 -- -- 80
2020-04-26 01:00:00 14.1 11 Sudoeste 18 Sudoeste 0 -- -- 80
2020-04-26 00:00:00 14 13 Sudoeste 22 Sudoeste 0 -- -- 78